sensor_id;sensor_type;location;lat;lon;timestamp;temperature;humidity
15630;DHT22;7914;50.842;0.166;2022-08-01T00:01:12;19.10;99.90
15630;DHT22;7914;50.842;0.166;2022-08-01T00:03:38;19.00;99.90
15630;DHT22;7914;50.842;0.166;2022-08-01T00:06:04;19.10;99.90
15630;DHT22;7914;50.842;0.166;2022-08-01T00:08:30;19.10;99.90
15630;DHT22;7914;50.842;0.166;2022-08-01T00:10:56;19.10;99.90
15630;DHT22;7914;50.842;0.166;2022-08-01T00:13:22;19.00;99.90
15630;DHT22;7914;50.842;0.166;2022-08-01T00:15:47;19.00;99.90
15630;DHT22;7914;50.842;0.166;2022-08-01T00:18:13;18.90;99.90
15630;DHT22;7914;50.842;0.166;2022-08-01T00:20:39;18.90;99.90
15630;DHT22;7914;50.842;0.166;2022-08-01T00:23:04;18.90;99.90
15630;DHT22;7914;50.842;0.166;2022-08-01T00:25:30;18.90;99.90
15630;DHT22;7914;50.842;0.166;2022-08-01T00:27:56;18.80;99.90
15630;DHT22;7914;50.842;0.166;2022-08-01T00:30:22;18.80;99.90
15630;DHT22;7914;50.842;0.166;2022-08-01T00:32:47;18.80;99.90
15630;DHT22;7914;50.842;0.166;2022-08-01T00:35:13;18.80;99.90
15630;DHT22;7914;50.842;0.166;2022-08-01T00:37:39;18.70;99.90
15630;DHT22;7914;50.842;0.166;2022-08-01T00:40:06;18.70;99.90
15630;DHT22;7914;50.842;0.166;2022-08-01T00:42:32;18.70;99.90
15630;DHT22;7914;50.842;0.166;2022-08-01T00:44:58;18.70;99.90
15630;DHT22;7914;50.842;0.166;2022-08-01T00:47:23;18.70;99.90
15630;DHT22;7914;50.842;0.166;2022-08-01T00:49:49;18.70;99.90
15630;DHT22;7914;50.842;0.166;2022-08-01T00:52:15;18.70;99.90
15630;DHT22;7914;50.842;0.166;2022-08-01T00:54:41;18.70;99.90
15630;DHT22;7914;50.842;0.166;2022-08-01T00:57:07;18.70;99.90
15630;DHT22;7914;50.842;0.166;2022-08-01T00:59:34;18.70;99.90
15630;DHT22;7914;50.842;0.166;2022-08-01T01:02:00;18.70;99.90
15630;DHT22;7914;50.842;0.166;2022-08-01T01:04:26;18.70;99.90
15630;DHT22;7914;50.842;0.166;2022-08-01T01:07:19;18.70;99.90
15630;DHT22;7914;50.842;0.166;2022-08-01T01:09:52;18.70;99.90
15630;DHT22;7914;50.842;0.166;2022-08-01T01:15:19;18.80;99.90
15630;DHT22;7914;50.842;0.166;2022-08-01T01:29:33;18.90;99.90
15630;DHT22;7914;50.842;0.166;2022-08-01T01:32:17;18.90;99.90
15630;DHT22;7914;50.842;0.166;2022-08-01T01:34:45;18.90;99.90
15630;DHT22;7914;50.842;0.166;2022-08-01T01:37:16;18.90;99.90
15630;DHT22;7914;50.842;0.166;2022-08-01T01:39:43;18.90;99.90
15630;DHT22;7914;50.842;0.166;2022-08-01T01:42:10;18.90;99.90
15630;DHT22;7914;50.842;0.166;2022-08-01T01:44:37;18.80;99.90
15630;DHT22;7914;50.842;0.166;2022-08-01T01:47:04;18.90;99.90
15630;DHT22;7914;50.842;0.166;2022-08-01T01:49:32;18.80;99.90
15630;DHT22;7914;50.842;0.166;2022-08-01T01:51:59;18.80;99.90
15630;DHT22;7914;50.842;0.166;2022-08-01T01:54:30;18.80;99.90
15630;DHT22;7914;50.842;0.166;2022-08-01T01:56:58;18.80;99.90
15630;DHT22;7914;50.842;0.166;2022-08-01T01:59:27;18.80;99.90
15630;DHT22;7914;50.842;0.166;2022-08-01T02:01:56;18.80;99.90
15630;DHT22;7914;50.842;0.166;2022-08-01T02:04:24;18.70;99.90
15630;DHT22;7914;50.842;0.166;2022-08-01T02:06:51;18.70;99.90
15630;DHT22;7914;50.842;0.166;2022-08-01T02:09:20;18.70;99.90
15630;DHT22;7914;50.842;0.166;2022-08-01T02:11:48;18.60;99.90
15630;DHT22;7914;50.842;0.166;2022-08-01T02:14:16;18.70;99.90
15630;DHT22;7914;50.842;0.166;2022-08-01T02:16:47;18.70;99.90
15630;DHT22;7914;50.842;0.166;2022-08-01T02:19:14;18.60;99.90
15630;DHT22;7914;50.842;0.166;2022-08-01T02:21:48;18.60;99.90
15630;DHT22;7914;50.842;0.166;2022-08-01T02:24:37;18.60;99.90
15630;DHT22;7914;50.842;0.166;2022-08-01T02:27:14;18.60;99.90
15630;DHT22;7914;50.842;0.166;2022-08-01T02:29:49;18.50;99.90
15630;DHT22;7914;50.842;0.166;2022-08-01T02:32:23;18.50;99.90
15630;DHT22;7914;50.842;0.166;2022-08-01T02:34:51;18.50;99.90
15630;DHT22;7914;50.842;0.166;2022-08-01T02:37:19;18.40;99.90
15630;DHT22;7914;50.842;0.166;2022-08-01T02:39:48;18.50;99.90
15630;DHT22;7914;50.842;0.166;2022-08-01T02:42:16;18.50;99.90
15630;DHT22;7914;50.842;0.166;2022-08-01T02:44:44;18.50;99.90
15630;DHT22;7914;50.842;0.166;2022-08-01T02:47:12;18.50;99.90
15630;DHT22;7914;50.842;0.166;2022-08-01T02:49:47;18.60;99.90
15630;DHT22;7914;50.842;0.166;2022-08-01T02:52:16;18.60;99.90
15630;DHT22;7914;50.842;0.166;2022-08-01T02:54:43;18.60;99.90
15630;DHT22;7914;50.842;0.166;2022-08-01T02:57:12;18.60;99.90
15630;DHT22;7914;50.842;0.166;2022-08-01T02:59:39;18.70;99.90
15630;DHT22;7914;50.842;0.166;2022-08-01T03:02:06;18.70;99.90
15630;DHT22;7914;50.842;0.166;2022-08-01T03:04:34;18.70;99.90
15630;DHT22;7914;50.842;0.166;2022-08-01T03:07:03;18.60;99.90
15630;DHT22;7914;50.842;0.166;2022-08-01T03:09:31;18.60;99.90
15630;DHT22;7914;50.842;0.166;2022-08-01T03:12:00;18.60;99.90
15630;DHT22;7914;50.842;0.166;2022-08-01T03:14:27;18.50;99.90
15630;DHT22;7914;50.842;0.166;2022-08-01T03:16:56;18.50;99.90
15630;DHT22;7914;50.842;0.166;2022-08-01T03:19:24;18.50;99.90
15630;DHT22;7914;50.842;0.166;2022-08-01T03:21:52;18.60;99.90
15630;DHT22;7914;50.842;0.166;2022-08-01T03:24:18;18.60;99.90
15630;DHT22;7914;50.842;0.166;2022-08-01T03:26:45;18.60;99.90
15630;DHT22;7914;50.842;0.166;2022-08-01T03:29:18;18.60;99.90
15630;DHT22;7914;50.842;0.166;2022-08-01T03:31:45;18.60;99.90
15630;DHT22;7914;50.842;0.166;2022-08-01T03:34:12;18.60;99.90
15630;DHT22;7914;50.842;0.166;2022-08-01T03:36:53;18.70;99.90
15630;DHT22;7914;50.842;0.166;2022-08-01T03:39:24;18.70;99.90
15630;DHT22;7914;50.842;0.166;2022-08-01T03:41:54;18.70;99.90
15630;DHT22;7914;50.842;0.166;2022-08-01T03:44:25;18.70;99.90
15630;DHT22;7914;50.842;0.166;2022-08-01T03:46:58;18.70;99.90
15630;DHT22;7914;50.842;0.166;2022-08-01T03:49:29;18.70;99.90
15630;DHT22;7914;50.842;0.166;2022-08-01T03:51:56;18.70;99.90
15630;DHT22;7914;50.842;0.166;2022-08-01T03:54:25;18.70;99.90
15630;DHT22;7914;50.842;0.166;2022-08-01T03:56:53;18.70;99.90
15630;DHT22;7914;50.842;0.166;2022-08-01T03:59:20;18.80;99.90
15630;DHT22;7914;50.842;0.166;2022-08-01T04:01:47;18.70;99.90
15630;DHT22;7914;50.842;0.166;2022-08-01T04:04:13;18.70;99.90
15630;DHT22;7914;50.842;0.166;2022-08-01T04:06:40;18.70;99.90
15630;DHT22;7914;50.842;0.166;2022-08-01T04:09:09;18.70;99.90
15630;DHT22;7914;50.842;0.166;2022-08-01T04:11:35;18.60;99.90
15630;DHT22;7914;50.842;0.166;2022-08-01T04:14:02;18.50;99.90
15630;DHT22;7914;50.842;0.166;2022-08-01T04:16:27;18.50;99.90
15630;DHT22;7914;50.842;0.166;2022-08-01T04:18:53;18.50;99.90
15630;DHT22;7914;50.842;0.166;2022-08-01T04:21:23;18.40;99.90
15630;DHT22;7914;50.842;0.166;2022-08-01T04:23:52;18.40;99.90
15630;DHT22;7914;50.842;0.166;2022-08-01T04:26:20;18.40;99.90
15630;DHT22;7914;50.842;0.166;2022-08-01T04:28:47;18.40;99.90
15630;DHT22;7914;50.842;0.166;2022-08-01T04:31:16;18.40;99.90
15630;DHT22;7914;50.842;0.166;2022-08-01T04:33:47;18.40;99.90
15630;DHT22;7914;50.842;0.166;2022-08-01T04:36:18;18.50;99.90
15630;DHT22;7914;50.842;0.166;2022-08-01T04:38:46;18.60;99.90
15630;DHT22;7914;50.842;0.166;2022-08-01T04:41:14;18.50;99.90
15630;DHT22;7914;50.842;0.166;2022-08-01T04:43:41;18.60;99.90
15630;DHT22;7914;50.842;0.166;2022-08-01T04:46:08;18.60;99.90
15630;DHT22;7914;50.842;0.166;2022-08-01T04:48:38;18.60;99.90
15630;DHT22;7914;50.842;0.166;2022-08-01T04:51:04;18.70;99.90
15630;DHT22;7914;50.842;0.166;2022-08-01T04:53:36;18.70;99.90
15630;DHT22;7914;50.842;0.166;2022-08-01T04:56:02;18.80;99.90
15630;DHT22;7914;50.842;0.166;2022-08-01T04:58:27;18.80;99.90
15630;DHT22;7914;50.842;0.166;2022-08-01T05:00:53;18.80;99.90
15630;DHT22;7914;50.842;0.166;2022-08-01T05:03:19;18.80;99.90
15630;DHT22;7914;50.842;0.166;2022-08-01T05:05:44;18.80;99.90
15630;DHT22;7914;50.842;0.166;2022-08-01T05:08:10;18.80;99.90
15630;DHT22;7914;50.842;0.166;2022-08-01T05:10:36;18.90;99.90
15630;DHT22;7914;50.842;0.166;2022-08-01T05:13:02;18.90;99.90
15630;DHT22;7914;50.842;0.166;2022-08-01T05:15:27;19.00;99.90
15630;DHT22;7914;50.842;0.166;2022-08-01T05:17:53;19.10;99.90
15630;DHT22;7914;50.842;0.166;2022-08-01T05:20:19;19.10;99.90
15630;DHT22;7914;50.842;0.166;2022-08-01T05:22:45;19.10;99.90
15630;DHT22;7914;50.842;0.166;2022-08-01T05:25:11;19.10;99.90
15630;DHT22;7914;50.842;0.166;2022-08-01T05:27:36;19.10;99.90
15630;DHT22;7914;50.842;0.166;2022-08-01T05:30:09;19.10;99.90
15630;DHT22;7914;50.842;0.166;2022-08-01T05:32:36;19.10;99.90
15630;DHT22;7914;50.842;0.166;2022-08-01T05:35:02;19.10;99.90
15630;DHT22;7914;50.842;0.166;2022-08-01T05:37:28;19.10;99.90
15630;DHT22;7914;50.842;0.166;2022-08-01T05:39:54;19.10;99.90
15630;DHT22;7914;50.842;0.166;2022-08-01T05:42:20;19.10;99.90
15630;DHT22;7914;50.842;0.166;2022-08-01T05:44:46;19.00;99.90
15630;DHT22;7914;50.842;0.166;2022-08-01T05:47:13;19.00;99.90
15630;DHT22;7914;50.842;0.166;2022-08-01T05:49:38;19.00;99.90
15630;DHT22;7914;50.842;0.166;2022-08-01T05:52:04;19.00;99.90
15630;DHT22;7914;50.842;0.166;2022-08-01T05:54:30;19.10;99.90
15630;DHT22;7914;50.842;0.166;2022-08-01T05:56:56;19.10;99.90
15630;DHT22;7914;50.842;0.166;2022-08-01T05:59:25;19.10;99.90
15630;DHT22;7914;50.842;0.166;2022-08-01T06:01:52;19.20;99.90
15630;DHT22;7914;50.842;0.166;2022-08-01T06:04:17;19.20;99.90
15630;DHT22;7914;50.842;0.166;2022-08-01T06:06:43;19.40;99.90
15630;DHT22;7914;50.842;0.166;2022-08-01T06:09:09;19.50;99.90
15630;DHT22;7914;50.842;0.166;2022-08-01T06:11:34;19.70;99.90
15630;DHT22;7914;50.842;0.166;2022-08-01T06:14:00;19.80;99.90
15630;DHT22;7914;50.842;0.166;2022-08-01T06:16:26;19.80;99.90
15630;DHT22;7914;50.842;0.166;2022-08-01T06:18:51;19.90;99.90
15630;DHT22;7914;50.842;0.166;2022-08-01T06:21:17;19.90;99.90
15630;DHT22;7914;50.842;0.166;2022-08-01T06:23:43;19.80;99.90
15630;DHT22;7914;50.842;0.166;2022-08-01T06:26:09;19.80;99.90
15630;DHT22;7914;50.842;0.166;2022-08-01T06:28:35;19.60;99.90
15630;DHT22;7914;50.842;0.166;2022-08-01T06:31:01;19.60;99.90
15630;DHT22;7914;50.842;0.166;2022-08-01T06:33:27;19.60;99.90
15630;DHT22;7914;50.842;0.166;2022-08-01T06:35:53;19.50;99.90
15630;DHT22;7914;50.842;0.166;2022-08-01T06:38:19;19.50;99.90
15630;DHT22;7914;50.842;0.166;2022-08-01T06:40:45;19.50;99.90
15630;DHT22;7914;50.842;0.166;2022-08-01T06:43:11;19.50;99.90
15630;DHT22;7914;50.842;0.166;2022-08-01T06:45:38;19.50;99.90
15630;DHT22;7914;50.842;0.166;2022-08-01T06:48:04;19.60;99.90
15630;DHT22;7914;50.842;0.166;2022-08-01T06:50:30;19.60;99.90
15630;DHT22;7914;50.842;0.166;2022-08-01T06:52:56;19.60;99.90
15630;DHT22;7914;50.842;0.166;2022-08-01T06:55:22;19.70;99.90
15630;DHT22;7914;50.842;0.166;2022-08-01T06:57:49;19.60;99.90
15630;DHT22;7914;50.842;0.166;2022-08-01T07:00:16;19.60;99.90
15630;DHT22;7914;50.842;0.166;2022-08-01T07:02:44;19.60;99.90
15630;DHT22;7914;50.842;0.166;2022-08-01T07:05:10;19.70;99.90
15630;DHT22;7914;50.842;0.166;2022-08-01T07:07:36;19.70;99.90
15630;DHT22;7914;50.842;0.166;2022-08-01T07:10:03;19.70;99.90
15630;DHT22;7914;50.842;0.166;2022-08-01T07:12:28;19.80;99.90
15630;DHT22;7914;50.842;0.166;2022-08-01T07:14:54;20.00;99.90
15630;DHT22;7914;50.842;0.166;2022-08-01T07:17:20;20.10;99.90
15630;DHT22;7914;50.842;0.166;2022-08-01T07:19:46;20.20;99.90
15630;DHT22;7914;50.842;0.166;2022-08-01T07:22:12;20.10;99.90
15630;DHT22;7914;50.842;0.166;2022-08-01T07:24:40;20.10;99.90
15630;DHT22;7914;50.842;0.166;2022-08-01T07:27:07;20.00;99.90
15630;DHT22;7914;50.842;0.166;2022-08-01T07:29:32;20.00;99.90
15630;DHT22;7914;50.842;0.166;2022-08-01T07:31:58;20.00;99.90
15630;DHT22;7914;50.842;0.166;2022-08-01T07:34:25;19.90;99.90
15630;DHT22;7914;50.842;0.166;2022-08-01T07:36:52;19.90;99.90
15630;DHT22;7914;50.842;0.166;2022-08-01T07:39:18;19.90;99.90
15630;DHT22;7914;50.842;0.166;2022-08-01T07:41:44;19.90;99.90
15630;DHT22;7914;50.842;0.166;2022-08-01T07:44:09;19.90;99.90
15630;DHT22;7914;50.842;0.166;2022-08-01T07:46:35;20.00;99.90
15630;DHT22;7914;50.842;0.166;2022-08-01T07:49:01;20.00;99.90
15630;DHT22;7914;50.842;0.166;2022-08-01T07:51:27;20.10;99.90
15630;DHT22;7914;50.842;0.166;2022-08-01T07:53:52;20.20;99.90
15630;DHT22;7914;50.842;0.166;2022-08-01T07:56:18;20.40;99.90
15630;DHT22;7914;50.842;0.166;2022-08-01T07:58:44;20.60;99.90
15630;DHT22;7914;50.842;0.166;2022-08-01T08:01:11;20.70;99.90
15630;DHT22;7914;50.842;0.166;2022-08-01T08:03:37;20.80;99.90
15630;DHT22;7914;50.842;0.166;2022-08-01T08:06:03;20.90;99.90
15630;DHT22;7914;50.842;0.166;2022-08-01T08:08:29;21.00;99.90
15630;DHT22;7914;50.842;0.166;2022-08-01T08:10:54;21.10;99.90
15630;DHT22;7914;50.842;0.166;2022-08-01T08:13:20;21.30;99.90
15630;DHT22;7914;50.842;0.166;2022-08-01T08:15:47;21.40;99.90
15630;DHT22;7914;50.842;0.166;2022-08-01T08:18:12;21.70;99.90
15630;DHT22;7914;50.842;0.166;2022-08-01T08:20:38;21.80;99.90
15630;DHT22;7914;50.842;0.166;2022-08-01T08:23:04;22.00;99.90
15630;DHT22;7914;50.842;0.166;2022-08-01T08:25:49;21.90;99.90
15630;DHT22;7914;50.842;0.166;2022-08-01T08:28:15;21.80;99.90
15630;DHT22;7914;50.842;0.166;2022-08-01T08:30:41;21.60;99.90
15630;DHT22;7914;50.842;0.166;2022-08-01T08:33:06;21.40;99.90
15630;DHT22;7914;50.842;0.166;2022-08-01T08:35:32;21.40;99.90
15630;DHT22;7914;50.842;0.166;2022-08-01T08:37:57;21.20;99.90
15630;DHT22;7914;50.842;0.166;2022-08-01T08:40:29;21.10;99.90
15630;DHT22;7914;50.842;0.166;2022-08-01T08:42:58;21.00;99.90
15630;DHT22;7914;50.842;0.166;2022-08-01T08:45:26;21.00;99.90
15630;DHT22;7914;50.842;0.166;2022-08-01T08:47:53;20.80;99.90
15630;DHT22;7914;50.842;0.166;2022-08-01T08:50:19;20.80;99.90
15630;DHT22;7914;50.842;0.166;2022-08-01T08:52:46;20.80;99.90
15630;DHT22;7914;50.842;0.166;2022-08-01T08:55:16;20.70;99.90
15630;DHT22;7914;50.842;0.166;2022-08-01T08:57:44;20.70;99.90
15630;DHT22;7914;50.842;0.166;2022-08-01T09:00:11;20.80;99.90
15630;DHT22;7914;50.842;0.166;2022-08-01T09:02:44;20.80;99.90
15630;DHT22;7914;50.842;0.166;2022-08-01T09:05:10;20.80;99.90
15630;DHT22;7914;50.842;0.166;2022-08-01T09:07:37;20.90;99.90
15630;DHT22;7914;50.842;0.166;2022-08-01T09:10:03;21.00;99.90
15630;DHT22;7914;50.842;0.166;2022-08-01T09:12:29;21.00;99.90
15630;DHT22;7914;50.842;0.166;2022-08-01T09:14:55;21.10;99.90
15630;DHT22;7914;50.842;0.166;2022-08-01T09:17:21;21.20;99.90
15630;DHT22;7914;50.842;0.166;2022-08-01T09:19:52;21.40;99.90
15630;DHT22;7914;50.842;0.166;2022-08-01T09:22:20;21.40;99.90
15630;DHT22;7914;50.842;0.166;2022-08-01T09:25:09;21.40;99.90
15630;DHT22;7914;50.842;0.166;2022-08-01T09:27:39;21.40;99.90
15630;DHT22;7914;50.842;0.166;2022-08-01T09:30:13;21.30;99.90
15630;DHT22;7914;50.842;0.166;2022-08-01T09:35:29;20.90;99.90
15630;DHT22;7914;50.842;0.166;2022-08-01T09:38:17;21.00;99.90
15630;DHT22;7914;50.842;0.166;2022-08-01T09:43:14;21.40;99.90
15630;DHT22;7914;50.842;0.166;2022-08-01T09:45:39;21.50;99.90
15630;DHT22;7914;50.842;0.166;2022-08-01T09:48:07;21.60;99.90
15630;DHT22;7914;50.842;0.166;2022-08-01T09:50:43;21.60;99.90
15630;DHT22;7914;50.842;0.166;2022-08-01T09:53:12;21.60;99.90
15630;DHT22;7914;50.842;0.166;2022-08-01T09:55:39;21.60;99.90
15630;DHT22;7914;50.842;0.166;2022-08-01T09:58:05;21.50;99.90
15630;DHT22;7914;50.842;0.166;2022-08-01T10:00:33;21.40;99.90
15630;DHT22;7914;50.842;0.166;2022-08-01T10:02:59;21.40;99.90
15630;DHT22;7914;50.842;0.166;2022-08-01T10:05:35;21.30;99.90
15630;DHT22;7914;50.842;0.166;2022-08-01T10:08:04;21.40;99.90
15630;DHT22;7914;50.842;0.166;2022-08-01T10:10:31;21.30;99.90
15630;DHT22;7914;50.842;0.166;2022-08-01T10:12:58;21.30;99.90
15630;DHT22;7914;50.842;0.166;2022-08-01T10:15:25;21.40;99.90
15630;DHT22;7914;50.842;0.166;2022-08-01T10:17:56;21.60;99.90
15630;DHT22;7914;50.842;0.166;2022-08-01T10:20:27;21.70;99.90
15630;DHT22;7914;50.842;0.166;2022-08-01T10:22:54;22.00;99.90
15630;DHT22;7914;50.842;0.166;2022-08-01T10:25:21;22.10;99.90
15630;DHT22;7914;50.842;0.166;2022-08-01T10:27:49;22.10;99.90
15630;DHT22;7914;50.842;0.166;2022-08-01T10:30:17;22.20;99.90
15630;DHT22;7914;50.842;0.166;2022-08-01T10:32:45;22.30;99.90
15630;DHT22;7914;50.842;0.166;2022-08-01T10:35:11;22.30;99.90
15630;DHT22;7914;50.842;0.166;2022-08-01T10:37:44;22.40;99.90
15630;DHT22;7914;50.842;0.166;2022-08-01T10:40:16;22.40;99.90
15630;DHT22;7914;50.842;0.166;2022-08-01T10:42:43;22.20;99.90
15630;DHT22;7914;50.842;0.166;2022-08-01T10:45:12;22.20;99.90
15630;DHT22;7914;50.842;0.166;2022-08-01T10:50:45;22.50;99.90
15630;DHT22;7914;50.842;0.166;2022-08-01T10:53:15;22.50;99.90
15630;DHT22;7914;50.842;0.166;2022-08-01T10:56:01;22.70;99.90
15630;DHT22;7914;50.842;0.166;2022-08-01T10:58:38;23.00;99.90
15630;DHT22;7914;50.842;0.166;2022-08-01T11:01:26;23.00;99.90
15630;DHT22;7914;50.842;0.166;2022-08-01T11:06:41;23.10;99.90
15630;DHT22;7914;50.842;0.166;2022-08-01T11:12:00;23.20;99.90
15630;DHT22;7914;50.842;0.166;2022-08-01T11:14:29;23.30;99.90
15630;DHT22;7914;50.842;0.166;2022-08-01T11:16:55;23.60;99.90
15630;DHT22;7914;50.842;0.166;2022-08-01T11:19:21;23.80;99.90
15630;DHT22;7914;50.842;0.166;2022-08-01T11:27:29;23.70;99.90
15630;DHT22;7914;50.842;0.166;2022-08-01T11:32:51;23.60;99.90
15630;DHT22;7914;50.842;0.166;2022-08-01T11:35:18;23.70;99.90
15630;DHT22;7914;50.842;0.166;2022-08-01T11:37:46;23.60;99.90
15630;DHT22;7914;50.842;0.166;2022-08-01T11:42:48;23.60;99.90
15630;DHT22;7914;50.842;0.166;2022-08-01T11:45:14;23.50;99.90
15630;DHT22;7914;50.842;0.166;2022-08-01T11:47:48;23.50;99.90
15630;DHT22;7914;50.842;0.166;2022-08-01T11:50:33;23.30;99.90
15630;DHT22;7914;50.842;0.166;2022-08-01T11:53:02;23.20;99.90
15630;DHT22;7914;50.842;0.166;2022-08-01T11:55:28;23.10;99.90
15630;DHT22;7914;50.842;0.166;2022-08-01T11:58:12;23.00;99.90
15630;DHT22;7914;50.842;0.166;2022-08-01T12:00:39;22.70;99.90
15630;DHT22;7914;50.842;0.166;2022-08-01T12:03:06;22.80;99.90
15630;DHT22;7914;50.842;0.166;2022-08-01T12:05:34;22.60;99.90
15630;DHT22;7914;50.842;0.166;2022-08-01T12:08:02;22.50;99.90
15630;DHT22;7914;50.842;0.166;2022-08-01T12:10:37;22.60;99.90
15630;DHT22;7914;50.842;0.166;2022-08-01T12:13:05;22.60;99.90
15630;DHT22;7914;50.842;0.166;2022-08-01T12:15:36;22.60;99.90
15630;DHT22;7914;50.842;0.166;2022-08-01T12:18:04;22.70;99.90
15630;DHT22;7914;50.842;0.166;2022-08-01T12:20:38;22.90;99.90
15630;DHT22;7914;50.842;0.166;2022-08-01T12:23:09;22.80;99.90
15630;DHT22;7914;50.842;0.166;2022-08-01T12:25:35;22.70;99.90
15630;DHT22;7914;50.842;0.166;2022-08-01T12:28:06;22.60;99.90
15630;DHT22;7914;50.842;0.166;2022-08-01T12:30:33;22.60;99.90
15630;DHT22;7914;50.842;0.166;2022-08-01T12:33:04;22.60;99.90
15630;DHT22;7914;50.842;0.166;2022-08-01T12:35:33;22.70;99.90
15630;DHT22;7914;50.842;0.166;2022-08-01T12:38:13;22.70;99.90
15630;DHT22;7914;50.842;0.166;2022-08-01T12:40:42;22.70;99.90
15630;DHT22;7914;50.842;0.166;2022-08-01T12:43:08;22.50;99.90
15630;DHT22;7914;50.842;0.166;2022-08-01T12:45:39;22.50;99.90
15630;DHT22;7914;50.842;0.166;2022-08-01T12:48:09;22.50;99.90
15630;DHT22;7914;50.842;0.166;2022-08-01T12:50:56;22.70;99.90
15630;DHT22;7914;50.842;0.166;2022-08-01T12:53:23;23.00;99.90
15630;DHT22;7914;50.842;0.166;2022-08-01T12:55:55;23.30;99.90
15630;DHT22;7914;50.842;0.166;2022-08-01T12:58:21;23.60;99.90
15630;DHT22;7914;50.842;0.166;2022-08-01T13:00:49;23.80;99.90
15630;DHT22;7914;50.842;0.166;2022-08-01T13:03:19;23.80;99.90
15630;DHT22;7914;50.842;0.166;2022-08-01T13:05:53;23.70;99.90
15630;DHT22;7914;50.842;0.166;2022-08-01T13:08:30;23.60;99.90
15630;DHT22;7914;50.842;0.166;2022-08-01T13:11:08;23.50;99.90
15630;DHT22;7914;50.842;0.166;2022-08-01T13:13:48;23.40;99.90
15630;DHT22;7914;50.842;0.166;2022-08-01T13:16:17;23.60;99.90
15630;DHT22;7914;50.842;0.166;2022-08-01T13:18:52;23.60;99.90
15630;DHT22;7914;50.842;0.166;2022-08-01T13:21:22;23.90;99.90
15630;DHT22;7914;50.842;0.166;2022-08-01T13:24:09;23.80;99.90
15630;DHT22;7914;50.842;0.166;2022-08-01T13:27:01;23.80;99.90
15630;DHT22;7914;50.842;0.166;2022-08-01T13:29:39;23.70;99.90
15630;DHT22;7914;50.842;0.166;2022-08-01T13:32:21;23.50;99.90
15630;DHT22;7914;50.842;0.166;2022-08-01T13:34:47;23.40;99.90
15630;DHT22;7914;50.842;0.166;2022-08-01T13:37:12;23.30;99.90
15630;DHT22;7914;50.842;0.166;2022-08-01T13:39:38;23.50;99.90
15630;DHT22;7914;50.842;0.166;2022-08-01T13:42:11;23.50;99.90
15630;DHT22;7914;50.842;0.166;2022-08-01T13:44:39;23.50;99.90
15630;DHT22;7914;50.842;0.166;2022-08-01T13:47:05;23.30;99.90
15630;DHT22;7914;50.842;0.166;2022-08-01T13:49:31;23.40;99.90
15630;DHT22;7914;50.842;0.166;2022-08-01T13:51:58;23.50;99.90
15630;DHT22;7914;50.842;0.166;2022-08-01T13:54:23;23.60;99.90
15630;DHT22;7914;50.842;0.166;2022-08-01T13:56:50;23.50;99.90
15630;DHT22;7914;50.842;0.166;2022-08-01T13:59:16;23.60;99.90
15630;DHT22;7914;50.842;0.166;2022-08-01T14:01:42;23.70;99.90
15630;DHT22;7914;50.842;0.166;2022-08-01T14:04:08;23.60;99.90
15630;DHT22;7914;50.842;0.166;2022-08-01T14:06:34;23.30;99.90
15630;DHT22;7914;50.842;0.166;2022-08-01T14:09:05;23.30;99.90
15630;DHT22;7914;50.842;0.166;2022-08-01T14:11:31;23.20;99.90
15630;DHT22;7914;50.842;0.166;2022-08-01T14:13:57;23.30;99.90
15630;DHT22;7914;50.842;0.166;2022-08-01T14:16:23;23.40;99.90
15630;DHT22;7914;50.842;0.166;2022-08-01T14:18:49;23.30;99.90
15630;DHT22;7914;50.842;0.166;2022-08-01T14:21:15;23.40;99.90
15630;DHT22;7914;50.842;0.166;2022-08-01T14:23:41;23.40;99.90
15630;DHT22;7914;50.842;0.166;2022-08-01T14:26:08;23.40;99.90
15630;DHT22;7914;50.842;0.166;2022-08-01T14:28:35;23.40;99.90
15630;DHT22;7914;50.842;0.166;2022-08-01T14:31:00;23.20;99.90
15630;DHT22;7914;50.842;0.166;2022-08-01T14:33:26;23.00;99.90
15630;DHT22;7914;50.842;0.166;2022-08-01T14:35:52;23.00;99.90
15630;DHT22;7914;50.842;0.166;2022-08-01T14:38:18;23.00;99.90
15630;DHT22;7914;50.842;0.166;2022-08-01T14:40:44;22.80;99.90
15630;DHT22;7914;50.842;0.166;2022-08-01T14:43:12;22.90;99.90
15630;DHT22;7914;50.842;0.166;2022-08-01T14:45:39;23.00;99.90
15630;DHT22;7914;50.842;0.166;2022-08-01T14:48:04;23.10;99.90
15630;DHT22;7914;50.842;0.166;2022-08-01T14:50:30;23.10;99.90
15630;DHT22;7914;50.842;0.166;2022-08-01T14:52:56;23.20;99.90
15630;DHT22;7914;50.842;0.166;2022-08-01T14:55:22;23.00;99.90
15630;DHT22;7914;50.842;0.166;2022-08-01T14:57:50;22.60;99.90
15630;DHT22;7914;50.842;0.166;2022-08-01T15:00:16;22.70;99.90
15630;DHT22;7914;50.842;0.166;2022-08-01T15:02:42;22.80;99.90
15630;DHT22;7914;50.842;0.166;2022-08-01T15:05:08;22.60;99.90
15630;DHT22;7914;50.842;0.166;2022-08-01T15:07:35;22.50;99.90
15630;DHT22;7914;50.842;0.166;2022-08-01T15:10:02;22.40;99.90
15630;DHT22;7914;50.842;0.166;2022-08-01T15:12:28;22.20;99.90
15630;DHT22;7914;50.842;0.166;2022-08-01T15:14:53;22.10;99.90
15630;DHT22;7914;50.842;0.166;2022-08-01T15:17:21;21.90;99.90
15630;DHT22;7914;50.842;0.166;2022-08-01T15:19:52;21.80;99.90
15630;DHT22;7914;50.842;0.166;2022-08-01T15:22:20;21.80;99.90
15630;DHT22;7914;50.842;0.166;2022-08-01T15:24:47;21.80;99.90
15630;DHT22;7914;50.842;0.166;2022-08-01T15:27:12;21.90;99.90
15630;DHT22;7914;50.842;0.166;2022-08-01T15:29:38;22.00;99.90
15630;DHT22;7914;50.842;0.166;2022-08-01T15:32:05;22.00;99.90
15630;DHT22;7914;50.842;0.166;2022-08-01T15:34:32;22.10;99.90
15630;DHT22;7914;50.842;0.166;2022-08-01T15:36:58;22.20;99.90
15630;DHT22;7914;50.842;0.166;2022-08-01T15:39:23;22.30;99.90
15630;DHT22;7914;50.842;0.166;2022-08-01T15:41:50;22.40;99.90
15630;DHT22;7914;50.842;0.166;2022-08-01T15:44:16;22.40;99.90
15630;DHT22;7914;50.842;0.166;2022-08-01T15:46:46;22.40;99.90
15630;DHT22;7914;50.842;0.166;2022-08-01T15:49:12;22.30;99.90
15630;DHT22;7914;50.842;0.166;2022-08-01T15:51:38;22.10;99.90
15630;DHT22;7914;50.842;0.166;2022-08-01T15:54:04;22.10;99.90
15630;DHT22;7914;50.842;0.166;2022-08-01T15:56:34;22.20;99.90
15630;DHT22;7914;50.842;0.166;2022-08-01T15:59:00;22.30;99.90
15630;DHT22;7914;50.842;0.166;2022-08-01T16:01:26;22.30;99.90
15630;DHT22;7914;50.842;0.166;2022-08-01T16:03:53;22.30;99.90
15630;DHT22;7914;50.842;0.166;2022-08-01T16:06:19;22.60;99.90
15630;DHT22;7914;50.842;0.166;2022-08-01T16:08:45;22.60;99.90
15630;DHT22;7914;50.842;0.166;2022-08-01T16:11:11;22.60;99.90
15630;DHT22;7914;50.842;0.166;2022-08-01T16:13:37;22.30;99.90
15630;DHT22;7914;50.842;0.166;2022-08-01T16:16:03;22.20;99.90
15630;DHT22;7914;50.842;0.166;2022-08-01T16:18:29;22.10;99.90
15630;DHT22;7914;50.842;0.166;2022-08-01T16:20:56;22.00;99.90
15630;DHT22;7914;50.842;0.166;2022-08-01T16:23:23;22.00;99.90
15630;DHT22;7914;50.842;0.166;2022-08-01T16:25:50;22.00;99.90
15630;DHT22;7914;50.842;0.166;2022-08-01T16:28:16;21.90;99.90
15630;DHT22;7914;50.842;0.166;2022-08-01T16:30:42;21.90;99.90